createdAt,value
2022-12-04T00:01:08.989Z,59.10
2022-12-04T00:03:36.472Z,73.78
2022-12-04T00:06:17.254Z,67.22
2022-12-04T00:08:44.004Z,70.85
2022-12-04T00:11:12.030Z,59.90
2022-12-04T00:13:39.150Z,70.60
2022-12-04T00:16:08.487Z,64.93
2022-12-04T00:18:35.652Z,58.10
2022-12-04T00:21:06.922Z,62.78
2022-12-04T00:23:34.756Z,67.13
2022-12-04T00:26:03.278Z,58.05
2022-12-04T00:28:29.806Z,63.35
2022-12-04T00:30:56.183Z,66.47
2022-12-04T00:33:23.584Z,59.70
2022-12-04T00:36:00.764Z,64.95
2022-12-04T00:38:27.591Z,63.67
2022-12-04T00:40:54.756Z,63.13
2022-12-04T00:43:22.355Z,60.38
2022-12-04T00:45:49.430Z,63.42
2022-12-04T00:48:16.048Z,63.05
2022-12-04T00:50:42.409Z,60.35
2022-12-04T00:53:08.862Z,65.65
2022-12-04T00:55:41.085Z,64.88
2022-12-04T00:58:07.879Z,66.82
2022-12-04T01:00:35.823Z,62.83
2022-12-04T01:03:02.646Z,67.50
2022-12-04T01:05:29.111Z,73.00
2022-12-04T01:07:55.563Z,65.20
2022-12-04T01:10:22.114Z,62.42
2022-12-04T01:12:53.616Z,64.05
2022-12-04T01:15:22.816Z,66.43
2022-12-04T01:18:03.574Z,66.47
2022-12-04T01:20:32.547Z,66.80
2022-12-04T01:22:59.048Z,64.53
2022-12-04T01:25:25.399Z,69.13
2022-12-04T01:27:51.757Z,67.82
2022-12-04T01:30:20.138Z,69.88
2022-12-04T01:32:46.508Z,73.55
2022-12-04T01:35:12.975Z,71.10
2022-12-04T01:37:39.615Z,68.53
2022-12-04T01:40:06.868Z,64.07
2022-12-04T01:42:33.247Z,72.60
2022-12-04T01:45:30.767Z,69.00
2022-12-04T01:48:06.539Z,66.53
2022-12-04T01:50:33.443Z,67.43
2022-12-04T01:53:02.044Z,64.38
2022-12-04T01:55:29.945Z,66.65
2022-12-04T01:57:56.947Z,66.68
2022-12-04T02:00:24.187Z,72.10
2022-12-04T02:02:50.902Z,62.45
2022-12-04T02:05:20.811Z,68.68
2022-12-04T02:10:17.170Z,69.70
2022-12-04T02:13:03.402Z,69.68
2022-12-04T02:15:50.883Z,65.43
2022-12-04T02:18:27.427Z,68.10
2022-12-04T02:21:14.029Z,72.90
2022-12-04T02:23:58.872Z,68.53
2022-12-04T02:26:34.011Z,68.30
2022-12-04T02:29:27.605Z,64.18
2022-12-04T02:32:16.148Z,64.72
2022-12-04T02:34:55.590Z,64.30
2022-12-04T02:37:32.356Z,67.47
2022-12-04T02:40:07.737Z,69.68
2022-12-04T02:42:42.400Z,73.05
2022-12-04T02:45:14.315Z,68.13
2022-12-04T02:47:43.247Z,69.00
2022-12-04T02:50:13.522Z,68.05
2022-12-04T02:52:46.396Z,69.85
2022-12-04T02:55:21.755Z,70.18
2022-12-04T02:57:53.187Z,65.00
2022-12-04T03:00:21.228Z,69.60
2022-12-04T03:02:55.347Z,71.00
2022-12-04T03:05:27.696Z,67.97
2022-12-04T03:08:01.079Z,69.70
2022-12-04T03:10:34.277Z,72.90
2022-12-04T03:13:09.262Z,65.10
2022-12-04T03:15:45.905Z,66.32
2022-12-04T03:18:18.337Z,70.53
2022-12-04T03:20:48.298Z,66.15
2022-12-04T03:23:20.451Z,71.57
2022-12-04T03:25:59.089Z,69.72
2022-12-04T03:28:40.293Z,69.97
2022-12-04T03:31:09.298Z,69.22
2022-12-04T03:33:43.273Z,72.68
2022-12-04T03:36:28.179Z,67.35
2022-12-04T03:39:00.518Z,66.78
2022-12-04T03:41:36.216Z,64.82
2022-12-04T03:44:12.598Z,63.20
2022-12-04T03:46:52.209Z,65.70
2022-12-04T03:50:02.509Z,70.10
2022-12-04T03:52:42.238Z,66.60
2022-12-04T03:55:15.812Z,70.97
2022-12-04T03:57:45.337Z,66.18
2022-12-04T04:00:18.853Z,67.13
2022-12-04T04:02:52.447Z,69.38
2022-12-04T04:05:20.276Z,68.38
2022-12-04T04:07:51.060Z,67.95
2022-12-04T04:10:22.208Z,67.45
2022-12-04T04:13:16.229Z,67.00
2022-12-04T04:16:07.258Z,63.88
2022-12-04T04:18:52.360Z,67.82
2022-12-04T04:21:41.908Z,66.85
2022-12-04T04:24:18.769Z,68.68
2022-12-04T04:26:47.297Z,69.32
2022-12-04T04:29:14.301Z,68.85
2022-12-04T04:32:08.546Z,66.18
2022-12-04T04:34:50.434Z,66.63
2022-12-04T04:37:32.256Z,67.32
2022-12-04T04:40:19.022Z,67.85
2022-12-04T04:42:55.500Z,67.32
2022-12-04T04:45:35.964Z,69.40
2022-12-04T04:48:08.538Z,72.82
2022-12-04T04:50:36.993Z,63.03
2022-12-04T04:53:08.981Z,63.05
2022-12-04T04:55:36.569Z,68.00
2022-12-04T04:58:11.245Z,67.05
2022-12-04T05:00:38.766Z,67.35
2022-12-04T05:03:06.023Z,70.93
2022-12-04T05:05:32.415Z,67.57
2022-12-04T05:07:58.842Z,65.47
2022-12-04T05:10:25.247Z,68.75
2022-12-04T05:12:51.639Z,65.22
2022-12-04T05:15:18.088Z,68.25
2022-12-04T05:17:44.427Z,67.68
2022-12-04T05:20:11.263Z,66.00
2022-12-04T05:22:38.111Z,66.25
2022-12-04T05:25:06.036Z,67.72
2022-12-04T05:27:33.088Z,62.58
2022-12-04T05:29:59.744Z,66.20
2022-12-04T05:32:28.002Z,65.80
2022-12-04T05:34:57.125Z,67.25
2022-12-04T05:37:24.235Z,66.22
2022-12-04T05:39:50.642Z,63.25
2022-12-04T05:42:17.039Z,62.60
2022-12-04T05:44:43.397Z,67.10
2022-12-04T05:47:10.004Z,67.72
2022-12-04T05:49:36.475Z,68.70
2022-12-04T05:52:05.075Z,69.95
2022-12-04T05:54:31.819Z,68.68
2022-12-04T05:56:58.307Z,68.68
2022-12-04T05:59:24.679Z,67.35
2022-12-04T06:01:51.078Z,65.32
2022-12-04T06:04:17.501Z,68.38
2022-12-04T06:06:43.915Z,63.60
2022-12-04T06:09:11.483Z,66.25
2022-12-04T06:11:40.050Z,66.88
2022-12-04T06:14:09.100Z,69.90
2022-12-04T06:16:37.967Z,69.18
2022-12-04T06:19:11.056Z,67.05
2022-12-04T06:21:39.811Z,63.08
2022-12-04T06:24:07.399Z,67.68
2022-12-04T06:26:33.771Z,73.60
2022-12-04T06:29:00.406Z,72.93
2022-12-04T06:31:29.028Z,66.70
2022-12-04T06:33:57.350Z,64.82
2022-12-04T06:36:24.370Z,66.35
2022-12-04T06:38:51.715Z,69.43
2022-12-04T06:41:20.943Z,74.65
2022-12-04T06:43:47.369Z,72.00
2022-12-04T06:46:16.996Z,70.53
2022-12-04T06:48:43.538Z,72.88
2022-12-04T06:51:16.897Z,78.95
2022-12-04T06:53:44.020Z,79.88
2022-12-04T06:56:16.132Z,78.38
2022-12-04T06:58:42.473Z,72.53
2022-12-04T07:01:11.733Z,72.07
2022-12-04T07:03:39.050Z,72.93
2022-12-04T07:06:24.454Z,74.85
2022-12-04T07:08:58.120Z,70.10
2022-12-04T07:11:24.837Z,73.90
2022-12-04T07:13:51.460Z,73.45
2022-12-04T07:16:20.794Z,67.40
2022-12-04T07:18:50.377Z,72.93
2022-12-04T07:21:20.228Z,71.22
2022-12-04T07:26:15.376Z,74.28
2022-12-04T07:28:41.941Z,67.72
2022-12-04T07:31:13.685Z,68.55
2022-12-04T07:33:40.686Z,75.40
2022-12-04T07:36:09.851Z,72.65
2022-12-04T07:38:36.282Z,80.15
2022-12-04T07:41:04.784Z,75.43
2022-12-04T07:43:31.741Z,77.40
2022-12-04T07:45:58.730Z,76.15
2022-12-04T07:48:30.209Z,79.15
2022-12-04T07:51:05.661Z,76.65
2022-12-04T07:53:33.904Z,75.47
2022-12-04T07:56:00.290Z,77.82
2022-12-04T07:58:26.692Z,83.07
2022-12-04T08:00:53.385Z,79.43
2022-12-04T08:03:19.785Z,76.65
2022-12-04T08:05:46.139Z,74.40
2022-12-04T08:08:13.236Z,79.03
2022-12-04T08:10:40.907Z,78.95
2022-12-04T08:13:07.276Z,79.32
2022-12-04T08:15:34.782Z,75.07
2022-12-04T08:18:01.142Z,76.43
2022-12-04T08:20:27.557Z,80.38
2022-12-04T08:22:53.932Z,71.85
2022-12-04T08:25:20.431Z,75.28
2022-12-04T08:27:47.940Z,76.53
2022-12-04T08:30:14.474Z,184.77
2022-12-04T08:32:40.900Z,109.15
2022-12-04T08:35:07.656Z,75.15
2022-12-04T08:37:34.217Z,71.38
2022-12-04T08:40:00.679Z,71.05
2022-12-04T08:42:27.052Z,76.75
2022-12-04T08:44:53.412Z,68.93
2022-12-04T08:47:19.755Z,75.53
2022-12-04T08:49:46.260Z,80.65
2022-12-04T08:52:12.851Z,73.97
2022-12-04T08:54:39.391Z,75.40
2022-12-04T08:57:06.131Z,124.70
2022-12-04T08:59:32.658Z,105.18
2022-12-04T09:01:59.109Z,77.18
2022-12-04T09:04:25.669Z,77.38
2022-12-04T09:06:52.048Z,70.15
2022-12-04T09:09:18.546Z,77.57
2022-12-04T09:11:46.281Z,80.95
2022-12-04T09:14:12.889Z,80.25
2022-12-04T09:16:39.232Z,76.10
2022-12-04T09:19:05.656Z,82.65
2022-12-04T09:21:32.076Z,79.70
2022-12-04T09:23:59.184Z,77.47
2022-12-04T09:26:28.405Z,84.57
2022-12-04T09:28:55.854Z,82.18
2022-12-04T09:31:23.358Z,77.38
2022-12-04T09:33:50.264Z,78.95
2022-12-04T09:36:17.224Z,82.35
2022-12-04T09:38:45.401Z,78.60
2022-12-04T09:41:49.405Z,77.40
2022-12-04T09:44:28.169Z,80.28
2022-12-04T09:47:01.244Z,76.88
2022-12-04T09:49:36.518Z,80.18
2022-12-04T09:52:11.674Z,75.85
2022-12-04T09:54:42.385Z,76.53
2022-12-04T09:57:17.245Z,79.78
2022-12-04T09:59:44.997Z,86.47
2022-12-04T10:02:33.347Z,181.57
2022-12-04T10:04:59.991Z,79.60
2022-12-04T10:07:28.912Z,78.07
2022-12-04T10:10:04.579Z,76.70
2022-12-04T10:12:46.306Z,72.85
2022-12-04T10:15:40.409Z,81.25
2022-12-04T10:18:15.671Z,78.50
2022-12-04T10:20:51.161Z,78.25
2022-12-04T10:23:51.972Z,79.13
2022-12-04T10:26:23.860Z,73.88
2022-12-04T10:29:01.036Z,80.38
2022-12-04T10:31:29.657Z,79.90
2022-12-04T10:33:58.655Z,79.53
2022-12-04T10:36:31.793Z,76.80
2022-12-04T10:39:10.757Z,84.15
2022-12-04T10:41:45.528Z,80.35
2022-12-04T10:44:16.952Z,78.40
2022-12-04T10:46:46.311Z,78.97
2022-12-04T10:49:29.881Z,82.00
2022-12-04T10:51:56.417Z,80.10
2022-12-04T10:54:37.372Z,77.75
2022-12-04T10:57:08.620Z,75.43
2022-12-04T10:59:38.764Z,76.85
2022-12-04T11:02:24.294Z,78.30
2022-12-04T11:05:17.869Z,76.53
2022-12-04T11:07:47.355Z,75.80
2022-12-04T11:10:25.845Z,75.13
2022-12-04T11:12:57.354Z,72.18
2022-12-04T11:15:24.508Z,76.18
2022-12-04T11:17:52.627Z,72.13
2022-12-04T11:20:26.497Z,74.93
2022-12-04T11:22:59.475Z,80.07
2022-12-04T11:25:31.776Z,79.43
2022-12-04T11:28:01.082Z,74.93
2022-12-04T11:30:38.114Z,86.45
2022-12-04T11:33:14.775Z,83.97
2022-12-04T11:35:41.466Z,80.20
2022-12-04T11:38:18.694Z,77.10
2022-12-04T11:40:50.495Z,74.97
2022-12-04T11:43:18.202Z,77.50
2022-12-04T11:46:02.523Z,73.75
2022-12-04T11:48:31.485Z,72.15
2022-12-04T11:51:17.781Z,72.85
2022-12-04T11:54:09.004Z,71.53
2022-12-04T11:56:42.542Z,74.18
2022-12-04T11:59:44.273Z,75.05
2022-12-04T12:02:32.579Z,70.43
2022-12-04T12:07:48.262Z,74.80
2022-12-04T12:10:27.729Z,70.95
2022-12-04T12:13:13.976Z,71.95
2022-12-04T12:15:53.994Z,73.00
2022-12-04T12:18:24.633Z,77.95
2022-12-04T12:21:08.576Z,76.03
2022-12-04T12:23:59.537Z,68.82
2022-12-04T12:26:55.088Z,69.80
2022-12-04T12:29:56.103Z,70.63
2022-12-04T12:32:31.158Z,64.22
2022-12-04T12:34:58.342Z,67.70
2022-12-04T12:37:49.380Z,71.47
2022-12-04T12:40:25.105Z,69.50
2022-12-04T12:43:04.848Z,71.93
2022-12-04T12:45:43.967Z,68.55
2022-12-04T12:48:24.571Z,78.63
2022-12-04T12:51:22.217Z,81.68
2022-12-04T12:53:51.133Z,81.43
2022-12-04T12:56:20.900Z,80.18
2022-12-04T13:01:34.660Z,71.53
2022-12-04T13:04:13.062Z,61.55
2022-12-04T13:06:42.914Z,61.55
2022-12-04T13:09:26.489Z,62.67
2022-12-04T13:12:00.321Z,64.38
2022-12-04T13:14:26.718Z,62.05
2022-12-04T13:17:01.067Z,55.45
2022-12-04T13:19:44.576Z,57.38
2022-12-04T13:22:26.811Z,58.45
2022-12-04T13:25:03.828Z,50.15
2022-12-04T13:28:01.888Z,49.65
2022-12-04T13:30:42.347Z,49.22
2022-12-04T13:33:20.793Z,51.38
2022-12-04T13:35:50.121Z,52.25
2022-12-04T13:38:35.282Z,52.55
2022-12-04T13:41:05.446Z,52.45
2022-12-04T13:43:36.131Z,53.00
2022-12-04T13:46:06.111Z,90.85
2022-12-04T13:48:43.240Z,51.25
2022-12-04T13:51:41.819Z,43.67
2022-12-04T13:54:10.929Z,42.97
2022-12-04T13:56:39.588Z,42.83
2022-12-04T13:59:18.783Z,45.78
2022-12-04T14:01:48.279Z,41.92
2022-12-04T14:04:45.552Z,40.03
2022-12-04T14:07:25.748Z,39.05
2022-12-04T14:09:54.468Z,40.03
2022-12-04T14:12:28.192Z,41.97
2022-12-04T14:14:59.401Z,42.17
2022-12-04T14:17:33.709Z,39.40
2022-12-04T14:20:07.810Z,44.03
2022-12-04T14:22:34.644Z,45.72
2022-12-04T14:25:13.205Z,50.70
2022-12-04T14:27:42.723Z,60.88
2022-12-04T14:30:28.354Z,65.35
2022-12-04T14:33:01.530Z,68.93
2022-12-04T14:35:29.122Z,72.57
2022-12-04T14:37:59.003Z,75.50
2022-12-04T14:40:28.660Z,70.20
2022-12-04T14:42:55.659Z,71.40
2022-12-04T14:45:52.467Z,69.47
2022-12-04T14:48:48.508Z,74.50
2022-12-04T14:51:41.622Z,73.85
2022-12-04T14:54:36.818Z,74.90
2022-12-04T14:57:31.514Z,124.82
2022-12-04T14:59:58.290Z,102.57
2022-12-04T15:02:41.506Z,84.65
2022-12-04T15:05:10.829Z,77.30
2022-12-04T15:07:37.346Z,79.05
2022-12-04T15:10:40.160Z,78.15
2022-12-04T15:13:06.652Z,77.18
2022-12-04T15:15:33.104Z,73.60
2022-12-04T15:18:17.549Z,71.45
2022-12-04T15:20:49.991Z,65.82
2022-12-04T15:23:41.339Z,69.88
2022-12-04T15:26:20.938Z,64.68
2022-12-04T15:29:00.680Z,70.22
2022-12-04T15:31:33.642Z,73.00
2022-12-04T15:34:03.955Z,76.20
2022-12-04T15:36:44.505Z,79.75
2022-12-04T15:39:18.835Z,91.55
2022-12-04T15:41:45.490Z,89.40
2022-12-04T15:44:30.069Z,89.00
2022-12-04T15:47:00.161Z,79.85
2022-12-04T15:49:31.470Z,77.88
2022-12-04T15:52:15.216Z,83.20
2022-12-04T15:54:44.237Z,76.60
2022-12-04T15:57:44.140Z,78.32
2022-12-04T16:00:42.346Z,70.32
2022-12-04T16:03:32.093Z,74.25
2022-12-04T16:06:22.673Z,73.90
2022-12-04T16:08:52.890Z,83.38
2022-12-04T16:11:20.127Z,119.57
2022-12-04T16:14:03.212Z,74.65
2022-12-04T16:16:32.333Z,80.65
2022-12-04T16:18:59.001Z,81.05
2022-12-04T16:21:31.278Z,70.57
2022-12-04T16:24:05.643Z,81.07
2022-12-04T16:26:32.956Z,80.40
2022-12-04T16:28:59.574Z,80.95
2022-12-04T16:31:26.731Z,78.80
2022-12-04T16:33:57.434Z,80.13
2022-12-04T16:36:23.921Z,78.35
2022-12-04T16:38:50.462Z,79.55
2022-12-04T16:41:19.972Z,81.35
2022-12-04T16:43:56.279Z,75.82
2022-12-04T16:46:24.929Z,75.85
2022-12-04T16:48:51.449Z,74.68
2022-12-04T16:51:23.344Z,74.03
2022-12-04T16:53:53.881Z,79.70
2022-12-04T16:56:21.293Z,73.15
2022-12-04T16:58:47.993Z,72.35
2022-12-04T17:01:28.336Z,73.68
2022-12-04T17:06:35.214Z,75.35
2022-12-04T17:09:01.632Z,70.00
2022-12-04T17:11:28.186Z,70.93
2022-12-04T17:13:54.545Z,72.97
2022-12-04T17:16:21.114Z,67.55
2022-12-04T17:18:47.768Z,69.97
2022-12-04T17:21:14.675Z,73.38
2022-12-04T17:23:41.346Z,65.93
2022-12-04T17:26:13.473Z,134.38
2022-12-04T17:28:40.638Z,85.53
2022-12-04T17:31:16.326Z,72.65
2022-12-04T17:33:43.779Z,70.20
2022-12-04T17:36:15.251Z,68.95
2022-12-04T17:38:41.860Z,66.30
2022-12-04T17:41:10.420Z,70.38
2022-12-04T17:43:36.820Z,68.63
2022-12-04T17:46:21.487Z,66.38
2022-12-04T17:48:48.591Z,64.50
2022-12-04T17:51:18.026Z,67.57
2022-12-04T17:53:44.811Z,68.07
2022-12-04T17:56:17.345Z,65.35
2022-12-04T17:58:44.766Z,62.65
2022-12-04T18:01:17.756Z,64.30
2022-12-04T18:03:49.753Z,60.75
2022-12-04T18:06:21.362Z,65.35
2022-12-04T18:08:50.248Z,64.60
2022-12-04T18:11:20.417Z,61.92
2022-12-04T18:13:48.872Z,51.38
2022-12-04T18:16:15.803Z,52.25
2022-12-04T18:18:42.520Z,44.65
2022-12-04T18:21:11.292Z,43.50
2022-12-04T18:23:44.314Z,40.28
2022-12-04T18:26:16.937Z,30.35
2022-12-04T18:28:43.892Z,30.48
2022-12-04T18:31:10.860Z,26.88
2022-12-04T18:33:39.096Z,24.30
2022-12-04T18:36:09.125Z,27.67
2022-12-04T18:38:35.664Z,32.08
2022-12-04T18:41:04.086Z,29.50
2022-12-04T18:43:33.979Z,27.17
2022-12-04T18:46:07.075Z,23.42
2022-12-04T18:48:34.832Z,25.50
2022-12-04T18:51:01.491Z,23.50
2022-12-04T18:53:28.090Z,22.45
2022-12-04T18:55:54.573Z,23.27
2022-12-04T18:58:22.635Z,24.05
2022-12-04T19:00:49.317Z,25.00
2022-12-04T19:03:15.696Z,57.53
2022-12-04T19:05:50.008Z,32.42
2022-12-04T19:08:17.564Z,24.13
2022-12-04T19:10:44.083Z,23.10
2022-12-04T19:13:10.567Z,25.23
2022-12-04T19:15:42.651Z,23.67
2022-12-04T19:18:09.452Z,23.70
2022-12-04T19:20:39.520Z,23.48
2022-12-04T19:23:05.868Z,23.15
2022-12-04T19:25:32.565Z,24.17
2022-12-04T19:27:59.116Z,22.38
2022-12-04T19:30:29.843Z,21.83
2022-12-04T19:32:56.194Z,22.17
2022-12-04T19:35:22.560Z,23.63
2022-12-04T19:37:55.052Z,24.98
2022-12-04T19:40:23.608Z,24.90
2022-12-04T19:42:50.009Z,25.75
2022-12-04T19:45:16.564Z,31.92
2022-12-04T19:47:43.136Z,25.80
2022-12-04T19:50:10.116Z,28.50
2022-12-04T19:52:36.481Z,26.55
2022-12-04T19:55:02.982Z,23.50
2022-12-04T19:57:29.410Z,25.17
2022-12-04T19:59:55.768Z,22.67
2022-12-04T20:02:22.194Z,24.55
2022-12-04T20:04:48.675Z,23.98
2022-12-04T20:07:15.227Z,24.42
2022-12-04T20:09:43.132Z,23.23
2022-12-04T20:12:12.585Z,21.60
2022-12-04T20:14:39.066Z,23.10
2022-12-04T20:17:05.566Z,23.23
2022-12-04T20:19:32.347Z,22.08
2022-12-04T20:21:59.560Z,23.65
2022-12-04T20:24:26.356Z,25.95
2022-12-04T20:26:52.699Z,25.73
2022-12-04T20:29:19.187Z,27.55
2022-12-04T20:31:46.348Z,24.27
2022-12-04T20:34:15.654Z,25.85
2022-12-04T20:36:44.049Z,27.15
2022-12-04T20:39:12.076Z,24.98
2022-12-04T20:41:38.970Z,24.65
2022-12-04T20:44:12.019Z,22.13
2022-12-04T20:46:39.921Z,23.15
2022-12-04T20:49:10.025Z,23.08
2022-12-04T20:51:39.054Z,26.02
2022-12-04T20:54:06.035Z,23.15
2022-12-04T20:56:35.010Z,23.10
2022-12-04T20:59:04.867Z,23.23
2022-12-04T21:01:31.532Z,22.58
2022-12-04T21:03:59.050Z,23.13
2022-12-04T21:06:34.531Z,22.70
2022-12-04T21:09:06.533Z,21.90
2022-12-04T21:11:36.933Z,21.65
2022-12-04T21:14:24.868Z,20.52
2022-12-04T21:16:51.660Z,22.42
2022-12-04T21:19:21.057Z,23.77
2022-12-04T21:21:47.863Z,24.67
2022-12-04T21:24:16.678Z,20.00
2022-12-04T21:26:43.657Z,23.50
2022-12-04T21:29:10.443Z,21.20
2022-12-04T21:31:38.114Z,24.15
2022-12-04T21:34:07.261Z,23.77
2022-12-04T21:36:34.001Z,22.63
2022-12-04T21:39:00.476Z,20.42
2022-12-04T21:41:45.457Z,22.52
2022-12-04T21:44:14.865Z,19.90
2022-12-04T21:46:41.615Z,21.13
2022-12-04T21:49:08.169Z,19.42
2022-12-04T21:54:21.609Z,20.77
2022-12-04T21:56:48.326Z,26.88
2022-12-04T21:59:14.950Z,18.65
2022-12-04T22:01:42.024Z,24.13
2022-12-04T22:04:08.431Z,20.23
2022-12-04T22:06:36.232Z,17.92
2022-12-04T22:09:06.597Z,17.10
2022-12-04T22:11:33.652Z,17.88
2022-12-04T22:14:00.035Z,19.13
2022-12-04T22:16:30.372Z,17.95
2022-12-04T22:18:58.999Z,16.83
2022-12-04T22:21:26.674Z,20.25
2022-12-04T22:24:01.395Z,18.95
2022-12-04T22:26:29.344Z,18.48
2022-12-04T22:28:56.480Z,17.77
2022-12-04T22:31:25.846Z,17.38
2022-12-04T22:33:54.040Z,17.15
2022-12-04T22:36:23.665Z,16.90
2022-12-04T22:39:09.785Z,17.00
2022-12-04T22:41:37.354Z,17.45
2022-12-04T22:44:04.023Z,16.25
2022-12-04T22:46:30.772Z,19.27
2022-12-04T22:48:58.926Z,18.48
2022-12-04T22:51:25.355Z,18.33
2022-12-04T22:53:54.420Z,18.08
2022-12-04T22:56:27.753Z,19.48
2022-12-04T22:58:55.128Z,18.75
2022-12-04T23:01:25.797Z,18.25
2022-12-04T23:03:53.289Z,18.52
2022-12-04T23:06:22.444Z,16.88
2022-12-04T23:08:53.470Z,20.90
2022-12-04T23:11:21.926Z,19.58
2022-12-04T23:13:54.529Z,19.58
2022-12-04T23:16:22.733Z,21.45
2022-12-04T23:18:49.913Z,20.50
2022-12-04T23:21:18.075Z,18.83
2022-12-04T23:23:46.151Z,20.58
2022-12-04T23:26:15.691Z,20.63
2022-12-04T23:28:42.647Z,25.08
2022-12-04T23:31:09.279Z,22.70
2022-12-04T23:33:35.723Z,22.33
2022-12-04T23:36:03.300Z,22.75
2022-12-04T23:38:30.843Z,21.67
2022-12-04T23:41:05.552Z,21.52
2022-12-04T23:43:32.736Z,22.92
2022-12-04T23:45:59.241Z,22.60
2022-12-04T23:48:25.774Z,22.98
2022-12-04T23:50:53.127Z,20.92
2022-12-04T23:53:20.553Z,24.70
2022-12-04T23:56:03.562Z,22.40
2022-12-04T23:58:31.455Z,22.75
